Time;durP1;ratioP1;P1;durP2;ratioP2;P2;SDS_P1;SDS_P2;PMS_P1;PMS_P2;Temp;Humidity;BMP_temperature;BMP_pressure;BME280_temperature;BME280_humidity;BME280_pressure;Samples;Min_cycle;Max_cycle;Signal;HPM_P1;HPM_P2
2021/09/15 00:03:18;;;;;;;32.55;20.97;;;;;;;11.88;86.49;99262.64;4278873;81;21924;-85
2021/09/15 00:09:19;;;;;;;29.45;19.35;;;;;;;11.82;86.53;99264.95;4133994;83;21070;-85
2021/09/15 00:15:20;;;;;;;25.15;17.80;;;;;;;11.81;86.89;99258.44;4290476;80;21051;-86
2021/09/15 00:21:50;;;;;;;28.40;19.98;;;;;;;11.79;87.03;99258.05;4268142;81;21059;-86
2021/09/15 00:27:55;;;;;;;29.18;19.55;;;;;;;11.88;87.13;99262.07;4277700;80;21079;-86
2021/09/15 00:33:56;;;;;;;27.50;18.73;;;;;;;11.83;86.92;99258.29;4281383;81;21056;-85
2021/09/15 00:53:52;;;;;;;25.15;18.02;;;;;;;11.65;88.36;99262.78;4272643;82;21079;-86
2021/09/15 00:59:55;;;;;;;29.50;19.92;;;;;;;11.65;87.34;99266.12;4260130;81;21035;-85
2021/09/15 01:06:11;;;;;;;31.82;20.12;;;;;;;11.49;87.16;99264.14;4280256;80;21113;-85
2021/09/15 01:12:21;;;;;;;30.95;18.98;;;;;;;11.34;87.36;99272.77;4262851;81;21082;-85
2021/09/15 01:25:33;;;;;;;25.82;18.30;;;;;;;11.05;87.48;99272.20;4249577;80;21083;-84
2021/09/15 01:38:40;;;;;;;26.37;20.12;;;;;;;10.86;87.57;99255.33;4269003;80;21000;-85
2021/09/15 01:44:58;;;;;;;29.35;20.30;;;;;;;10.77;87.67;99249.30;4276445;81;21595;-84
2021/09/15 01:51:00;;;;;;;32.05;19.12;;;;;;;10.72;87.87;99242.80;4281055;80;21062;-85
2021/09/15 01:57:04;;;;;;;27.13;17.73;;;;;;;10.69;88.49;99250.39;4298173;80;21576;-84
2021/09/15 02:03:13;;;;;;;27.90;18.62;;;;;;;10.96;89.10;99250.55;4107998;85;21700;-84
2021/09/15 02:09:23;;;;;;;25.30;18.85;;;;;;;11.18;89.51;99261.23;4116004;85;21180;-84
2021/09/15 02:15:32;;;;;;;25.92;18.87;;;;;;;11.06;88.44;99262.82;4118185;85;21644;-84
2021/09/15 02:21:39;;;;;;;28.85;19.73;;;;;;;10.96;88.72;99259.38;4240636;81;21030;-84
2021/09/15 02:28:04;;;;;;;27.95;20.05;;;;;;;10.80;88.39;99256.81;4279629;80;21151;-84
2021/09/15 02:34:36;;;;;;;27.20;19.77;;;;;;;10.65;88.43;99254.20;4283318;81;21035;-84
2021/09/15 02:40:46;;;;;;;26.27;17.62;;;;;;;10.54;88.62;99254.06;4266453;81;21973;-84
2021/09/15 02:47:19;;;;;;;31.15;20.45;;;;;;;10.45;88.60;99254.91;4121205;83;21152;-82
2021/09/15 02:53:45;;;;;;;27.48;18.92;;;;;;;10.41;88.85;99253.27;4127694;82;21723;-85
2021/09/15 03:00:34;;;;;;;29.15;19.70;;;;;;;10.36;89.07;99261.78;4272969;80;21004;-85
2021/09/15 03:06:38;;;;;;;28.73;19.32;;;;;;;10.28;88.94;99255.41;4273970;80;21115;-84
2021/09/15 03:12:59;;;;;;;30.90;19.10;;;;;;;10.26;89.40;99258.28;4056390;86;21693;-84
2021/09/15 03:19:27;;;;;;;;;;;;;;;10.26;89.54;99250.88;4055467;85;21023;-84
2021/09/15 03:25:29;;;;;;;31.67;19.37;;;;;;;10.22;90.04;99259.62;4056638;85;20317;-84
2021/09/15 03:31:47;;;;;;;27.55;20.30;;;;;;;10.14;89.58;99253.81;4060276;86;21192;-83
2021/09/15 03:38:18;;;;;;;29.02;20.20;;;;;;;10.08;89.63;99249.01;4045579;86;21225;-84
2021/09/15 03:44:36;;;;;;;32.13;20.00;;;;;;;10.03;89.57;99246.54;4040909;86;21147;-83
2021/09/15 03:50:41;;;;;;;25.35;18.73;;;;;;;9.97;89.85;99248.80;4237765;81;21094;-83
2021/09/15 03:56:45;;;;;;;34.58;22.27;;;;;;;9.90;89.94;99248.66;4274461;80;21035;-84
2021/09/15 04:02:47;;;;;;;29.98;20.72;;;;;;;9.93;90.07;99246.56;4279025;81;21079;-84
2021/09/15 04:09:01;;;;;;;29.48;18.98;;;;;;;9.88;89.99;99248.83;4287596;80;21071;-84
2021/09/15 04:15:14;;;;;;;24.32;18.45;;;;;;;9.84;90.07;99260.26;4289671;80;22279;-83
2021/09/15 04:21:40;;;;;;;26.48;17.95;;;;;;;9.93;90.47;99258.88;4266234;81;21390;-83
2021/09/15 04:34:45;;;;;;;29.63;20.92;;;;;;;10.01;90.39;99267.42;4270058;81;21192;-83
2021/09/15 04:40:56;;;;;;;38.78;23.70;;;;;;;9.93;90.56;99256.73;4279689;80;21120;-84
2021/09/15 04:46:59;;;;;;;36.08;22.77;;;;;;;9.89;90.65;99260.77;4269453;81;21069;-83
2021/09/15 04:53:01;;;;;;;40.20;21.10;;;;;;;9.91;90.92;99256.30;4278701;80;21023;-84
2021/09/15 04:59:04;;;;;;;41.45;25.40;;;;;;;9.84;90.58;99254.80;4275874;81;21086;-83
2021/09/15 05:05:13;;;;;;;39.00;23.55;;;;;;;9.85;91.20;99248.95;4135174;83;21116;-84
2021/09/15 05:18:18;;;;;;;40.15;26.42;;;;;;;9.98;91.71;99264.61;4133222;83;21069;-83
2021/09/15 05:24:25;;;;;;;40.40;25.27;;;;;;;10.10;91.77;99266.63;4285598;81;21103;-83
2021/09/15 05:30:28;;;;;;;59.53;25.20;;;;;;;10.22;92.50;99260.98;4268628;80;21547;-83
2021/09/15 05:36:40;;;;;;;43.15;27.75;;;;;;;10.34;91.91;99262.72;4270749;81;21086;-83
2021/09/15 05:42:54;;;;;;;42.10;26.97;;;;;;;10.49;93.21;99246.75;4266543;81;21050;-83
2021/09/15 05:48:55;;;;;;;39.38;25.43;;;;;;;10.64;93.21;99244.42;4270370;82;21494;-84
2021/09/15 05:55:02;;;;;;;39.85;27.48;;;;;;;10.89;93.26;99247.73;4273380;81;21327;-83
2021/09/15 06:01:03;;;;;;;34.98;23.45;;;;;;;11.11;93.91;99246.06;4269447;82;21048;-84
2021/09/15 06:07:04;;;;;;;41.83;26.75;;;;;;;11.44;93.74;99246.66;4274780;80;21002;-85
2021/09/15 06:13:06;;;;;;;46.37;31.42;;;;;;;11.76;93.55;99243.72;4231441;81;21001;-84
2021/09/15 06:19:07;;;;;;;47.80;31.95;;;;;;;11.88;93.40;99244.23;4277025;80;21351;-84
2021/09/15 06:25:30;;;;;;;45.43;32.95;;;;;;;11.99;93.60;99243.76;4251132;82;21082;-83
2021/09/15 06:31:36;;;;;;;50.05;33.85;;;;;;;12.22;94.22;99250.41;4271695;80;21039;-84
2021/09/15 06:37:50;;;;;;;48.87;33.88;;;;;;;12.40;94.39;99237.03;4265082;80;21012;-85
2021/09/15 06:44:11;;;;;;;45.55;32.28;;;;;;;12.59;94.39;99234.03;4284198;80;21118;-84
2021/09/15 06:50:14;;;;;;;50.35;32.90;;;;;;;12.85;94.57;99227.53;4280633;80;21057;-84
2021/09/15 06:56:15;;;;;;;51.18;35.13;;;;;;;13.12;94.50;99230.84;4281587;80;21527;-85
2021/09/15 07:02:31;;;;;;;52.45;34.33;;;;;;;13.32;94.50;99230.15;4287774;80;21074;-84
2021/09/15 07:08:34;;;;;;;43.75;32.25;;;;;;;13.51;94.09;99220.78;4287205;80;21600;-84
2021/09/15 07:14:35;;;;;;;42.60;29.70;;;;;;;13.78;95.00;99212.41;4282828;81;21055;-84
2021/09/15 07:20:37;;;;;;;39.25;29.92;;;;;;;14.10;95.18;99215.96;4282762;80;21024;-85
2021/09/15 07:26:45;;;;;;;36.75;27.60;;;;;;;14.45;95.45;99215.20;4268151;81;21519;-84
2021/09/15 07:32:46;;;;;;;37.08;27.60;;;;;;;14.81;95.36;99220.27;4169519;83;21060;-84
2021/09/15 07:38:49;;;;;;;38.63;27.73;;;;;;;15.18;95.40;99213.64;4138162;84;21060;-83
2021/09/15 07:51:31;;;;;;;40.60;22.35;;;;;;;15.95;94.67;99208.33;4183803;83;21162;-84
2021/09/15 07:57:53;;;;;;;28.05;19.75;;;;;;;16.46;94.43;99209.70;4277037;81;21654;-85
2021/09/15 08:04:23;;;;;;;28.30;19.02;;;;;;;16.96;94.03;99209.39;3887222;89;21116;-84
2021/09/15 08:17:26;;;;;;;22.45;16.95;;;;;;;17.93;92.68;99196.70;3891439;89;42222;-84
2021/09/15 08:23:38;;;;;;;27.13;15.85;;;;;;;18.29;92.18;99195.70;3937870;87;21140;-84
2021/09/15 08:29:48;;;;;;;21.77;14.95;;;;;;;18.60;91.63;99197.16;3924992;88;21096;-85
2021/09/15 08:35:51;;;;;;;18.82;14.25;;;;;;;18.94;91.07;99197.53;4058938;85;21349;-85
2021/09/15 08:41:54;;;;;;;23.22;15.00;;;;;;;19.29;90.25;99201.83;3975605;85;21191;-85
2021/09/15 08:54:54;;;;;;;23.75;14.83;;;;;;;19.72;88.49;99192.74;4149587;84;22237;-86
2021/09/15 09:01:28;;;;;;;21.15;14.28;;;;;;;20.05;87.14;99185.23;4127918;84;21153;-86
2021/09/15 09:07:37;;;;;;;18.62;13.95;;;;;;;20.47;87.42;99184.83;4136946;83;21681;-85
2021/09/15 09:21:03;;;;;;;17.42;13.05;;;;;;;22.01;85.10;99168.45;4140648;84;21166;-86
2021/09/15 09:27:04;;;;;;;15.08;11.88;;;;;;;22.82;83.92;99159.52;4138636;83;21605;-85
2021/09/15 09:33:09;;;;;;;17.95;11.63;;;;;;;23.64;82.52;99149.08;4058645;83;42922;-86
2021/09/15 09:39:11;;;;;;;15.58;12.18;;;;;;;24.49;81.04;99147.16;3994120;85;21139;-86
2021/09/15 09:45:16;;;;;;;14.95;10.58;;;;;;;25.29;78.69;99134.27;4020042;86;21092;-85
2021/09/15 09:58:24;;;;;;;;;;;;;;;26.54;75.26;99122.33;4024101;85;21123;-86
2021/09/15 10:04:29;;;;;;;11.40;10.23;;;;;;;27.15;71.82;99122.13;4006831;86;20426;-86
2021/09/15 10:10:31;;;;;;;11.78;9.50;;;;;;;27.62;71.40;99119.14;4036873;85;21088;-85
2021/09/15 10:16:37;;;;;;;11.95;9.70;;;;;;;28.26;69.39;99118.47;4039051;86;22301;-86
2021/09/15 10:22:43;;;;;;;11.95;9.18;;;;;;;28.55;68.18;99118.34;4033205;85;21133;-86
2021/09/15 10:29:30;;;;;;;10.05;8.88;;;;;;;28.92;66.69;99117.91;4012881;86;21086;-85
2021/09/15 10:35:48;;;;;;;9.83;8.13;;;;;;;29.17;64.30;99123.44;4021214;86;21077;-86
2021/09/15 10:48:27;;;;;;;9.53;8.00;;;;;;;29.69;61.73;99100.20;4019782;86;21215;-86
2021/09/15 11:01:43;;;;;;;8.58;7.62;;;;;;;29.73;57.39;99096.50;3991797;86;21098;-86
2021/09/15 11:08:13;;;;;;;;;;;;;;;;;;;;;
2021/09/15 11:20:38;;;;;;;9.15;7.10;;;;;;;29.55;52.78;99075.08;4021147;86;21159;-86
2021/09/15 11:27:00;;;;;;;8.48;7.17;;;;;;;29.36;52.83;99073.89;4030930;86;21243;-86
2021/09/15 11:33:02;;;;;;;10.82;7.53;;;;;;;28.96;51.81;99079.63;4013625;86;21091;-86
2021/09/15 11:39:17;;;;;;;8.55;7.67;;;;;;;28.32;51.77;99065.83;3914685;88;21118;-85
2021/09/15 11:45:34;;;;;;;14.33;9.33;;;;;;;27.79;52.14;99068.14;3902999;89;21093;-85
2021/09/15 11:51:44;;;;;;;18.02;7.92;;;;;;;27.33;52.57;99027.17;4019854;86;21593;-87
2021/09/15 11:57:58;;;;;;;11.93;8.13;;;;;;;27.17;53.14;99049.37;4022469;86;21111;-86
2021/09/15 12:17:19;;;;;;;9.85;8.13;;;;;;;26.25;53.45;99038.67;4012548;87;21073;-87
2021/09/15 12:24:03;;;;;;;8.48;7.67;;;;;;;25.98;53.67;99032.61;4020428;86;21143;-86
2021/09/15 12:30:24;;;;;;;9.30;7.47;;;;;;;25.81;53.51;99021.01;4029254;86;21104;-85
2021/09/15 12:36:29;;;;;;;9.00;8.10;;;;;;;25.53;53.92;99014.62;4012958;86;21093;-86
2021/09/15 12:43:01;;;;;;;9.83;7.90;;;;;;;25.46;54.65;99008.77;4025841;85;21106;-87
2021/09/15 12:49:02;;;;;;;9.98;8.80;;;;;;;25.36;54.49;98998.05;4009284;86;21615;-85
2021/09/15 12:55:04;;;;;;;9.08;8.18;;;;;;;25.15;54.71;98983.01;4007645;86;21134;-86
2021/09/15 13:01:06;;;;;;;8.30;7.50;;;;;;;24.97;55.10;98983.70;4024424;86;21027;-85
2021/09/15 13:07:07;;;;;;;9.50;7.70;;;;;;;24.89;55.51;98976.88;4021781;86;21099;-86
2021/09/15 13:13:29;;;;;;;10.68;7.85;;;;;;;24.80;55.99;98970.70;4008536;86;21146;-86
2021/09/15 13:19:47;;;;;;;8.08;7.28;;;;;;;24.69;56.19;98962.02;4017774;86;21131;-85
2021/09/15 13:32:14;;;;;;;8.70;7.12;;;;;;;24.53;56.63;98947.72;4011122;87;22058;-86
2021/09/15 13:38:17;;;;;;;11.20;7.72;;;;;;;24.39;56.97;98936.40;3894681;89;21032;-86
2021/09/15 13:44:42;;;;;;;10.75;7.40;;;;;;;24.37;57.66;98942.46;3976738;87;21143;-86
2021/09/15 13:51:06;;;;;;;8.90;7.03;;;;;;;24.33;57.58;98934.87;3957891;87;21080;-85
2021/09/15 13:57:16;;;;;;;7.35;6.55;;;;;;;24.25;57.61;98934.24;3952330;87;21226;-86
2021/09/15 14:03:22;;;;;;;11.50;7.20;;;;;;;24.13;57.93;98929.60;3952125;87;21067;-86
2021/09/15 14:09:36;;;;;;;10.18;7.58;;;;;;;24.02;58.25;98919.52;4017945;86;21154;-87
2021/09/15 14:16:10;;;;;;;16.00;7.12;;;;;;;23.99;58.54;98917.65;4013358;87;21080;-86
2021/09/15 14:22:24;;;;;;;12.13;7.25;;;;;;;23.96;58.77;98910.16;4016642;86;21106;-87
2021/09/15 14:28:42;;;;;;;10.03;7.62;;;;;;;23.91;58.70;98903.80;4015984;85;21079;-86
2021/09/15 14:34:45;;;;;;;10.53;6.92;;;;;;;23.85;58.78;98896.64;4009588;86;21636;-86
2021/09/15 14:40:48;;;;;;;13.48;6.83;;;;;;;23.77;59.14;98901.01;4016033;86;21107;-86
2021/09/15 14:46:50;;;;;;;7.92;6.60;;;;;;;23.66;59.41;98891.52;4020823;86;21073;-86
2021/09/15 14:53:17;;;;;;;13.78;7.20;;;;;;;23.58;59.68;98892.45;3937018;87;21184;-86
2021/09/15 14:59:33;;;;;;;8.50;6.17;;;;;;;23.49;59.91;98881.89;4014864;86;21583;-86
2021/09/15 15:05:35;;;;;;;10.43;6.97;;;;;;;23.41;60.28;98883.42;3939441;88;22393;-86
2021/09/15 15:11:36;;;;;;;17.32;6.67;;;;;;;23.36;60.75;98889.62;3940298;88;21181;-86
2021/09/15 15:17:38;;;;;;;13.03;6.87;;;;;;;23.30;61.07;98890.08;3953741;87;21159;-87
2021/09/15 15:23:45;;;;;;;8.58;6.20;;;;;;;23.26;61.27;98883.88;3917719;89;21089;-87
2021/09/15 15:29:57;;;;;;;10.30;6.72;;;;;;;23.22;61.71;98897.31;3887786;88;21154;-85
2021/09/15 15:36:14;;;;;;;12.30;7.22;;;;;;;23.20;62.33;98887.24;4026755;86;21054;-86
2021/09/15 15:42:16;;;;;;;13.28;7.28;;;;;;;23.18;62.55;98876.36;4014649;86;21093;-86
2021/09/15 15:48:17;;;;;;;9.65;7.35;;;;;;;23.10;62.79;98873.70;3999225;86;21110;-86
2021/09/15 15:54:20;;;;;;;9.85;7.20;;;;;;;22.94;63.12;98869.80;4023651;86;21066;-86
2021/09/15 16:00:21;;;;;;;17.15;7.78;;;;;;;22.77;63.48;98866.47;4002491;87;21108;-86
2021/09/15 16:06:24;;;;;;;12.70;7.47;;;;;;;22.63;63.90;98861.45;4027939;85;21197;-86
2021/09/15 16:12:25;;;;;;;10.70;7.62;;;;;;;22.51;64.41;98866.52;4014905;86;21130;-86
2021/09/15 16:18:33;;;;;;;15.28;8.63;;;;;;;22.35;64.74;98865.31;4020388;86;21139;-86
2021/09/15 16:24:48;;;;;;;15.95;10.15;;;;;;;22.18;65.38;98872.95;4014719;86;21112;-86
2021/09/15 16:30:49;;;;;;;11.15;9.28;;;;;;;22.08;65.85;98865.14;4004933;86;21070;-86
2021/09/15 16:36:59;;;;;;;19.62;12.47;;;;;;;21.93;66.32;98868.30;4019670;85;21079;-85
2021/09/15 16:43:06;;;;;;;18.02;11.18;;;;;;;21.79;66.70;98864.64;4013952;86;21756;-85
2021/09/15 16:49:11;;;;;;;18.30;10.78;;;;;;;21.63;67.26;98863.39;4021673;85;21201;-85
2021/09/15 16:55:17;;;;;;;17.20;13.37;;;;;;;21.44;67.87;98858.88;4018153;86;21089;-86
2021/09/15 17:01:23;;;;;;;17.98;12.47;;;;;;;21.24;68.39;98857.78;4003929;86;21115;-86
2021/09/15 17:07:24;;;;;;;17.30;11.53;;;;;;;21.08;68.99;98856.53;4015965;86;21111;-85
2021/09/15 17:13:33;;;;;;;77.22;28.23;;;;;;;20.93;69.62;98858.81;4007814;86;21076;-86
2021/09/15 17:19:34;;;;;;;43.92;20.72;;;;;;;20.73;70.22;98866.63;4024979;86;21145;-85
2021/09/15 17:25:44;;;;;;;52.23;22.20;;;;;;;20.55;71.01;98862.24;3993821;87;21108;-85
2021/09/15 17:32:12;;;;;;;112.68;36.48;;;;;;;20.36;71.33;98880.66;3971576;87;21115;-86
2021/09/15 17:38:52;;;;;;;47.93;21.27;;;;;;;20.11;71.98;98873.63;3896780;88;21130;-86
2021/09/15 17:51:55;;;;;;;23.73;15.93;;;;;;;19.74;72.90;98868.16;4019983;87;21054;-86
2021/09/15 17:58:04;;;;;;;20.90;14.58;;;;;;;19.50;73.27;98870.98;4023920;86;21174;-87
2021/09/15 18:04:06;;;;;;;20.60;14.55;;;;;;;19.27;73.70;98878.70;4026726;86;21158;-87
2021/09/15 18:10:12;;;;;;;29.20;15.43;;;;;;;19.19;74.47;98884.27;4010955;86;21123;-86
2021/09/15 18:16:29;;;;;;;34.55;24.87;;;;;;;19.12;74.90;98869.95;4018653;86;21106;-86
2021/09/15 18:22:32;;;;;;;34.15;22.42;;;;;;;19.09;75.43;98870.06;4010741;86;21590;-86
2021/09/15 18:28:44;;;;;;;28.98;19.77;;;;;;;19.00;75.87;98860.95;4005794;87;21188;-85
2021/09/15 18:35:10;;;;;;;27.67;19.05;;;;;;;18.93;76.31;98866.69;4028962;85;21153;-86
2021/09/15 18:41:11;;;;;;;28.62;20.97;;;;;;;18.83;76.47;98858.61;3996191;86;21078;-86
2021/09/15 18:47:16;;;;;;;27.93;19.37;;;;;;;18.78;77.02;98859.14;4007969;87;21072;-86
2021/09/15 18:53:17;;;;;;;29.05;18.87;;;;;;;18.66;77.30;98857.23;4026215;86;21641;-86
2021/09/15 18:59:29;;;;;;;30.88;18.77;;;;;;;18.46;77.64;98848.17;4031416;85;21182;-86
2021/09/15 19:05:34;;;;;;;25.75;20.25;;;;;;;18.35;77.91;98850.37;4016211;87;21138;-86
2021/09/15 19:11:43;;;;;;;31.95;20.23;;;;;;;18.23;78.37;98854.41;4024642;86;21151;-86
2021/09/15 19:17:56;;;;;;;34.67;24.00;;;;;;;18.10;78.84;98850.75;4002288;86;21141;-86
2021/09/15 19:24:08;;;;;;;50.40;31.85;;;;;;;;;;4016483;85;21158;-85
2021/09/15 19:30:27;;;;;;;56.40;34.70;;;;;;;17.81;79.79;98852.53;4023573;86;21107;-86
2021/09/15 19:43:08;;;;;;;64.70;39.60;;;;;;;17.55;79.95;98844.55;4013614;86;21167;-85
2021/09/15 19:49:11;;;;;;;63.00;38.50;;;;;;;17.35;80.70;98845.11;4009847;86;21160;-85
2021/09/15 19:55:18;;;;;;;65.05;38.55;;;;;;;17.16;81.04;98835.54;4015044;85;21079;-86
2021/09/15 20:01:22;;;;;;;58.68;38.28;;;;;;;17.10;81.68;98838.61;4016306;85;21091;-85
2021/09/15 20:07:27;;;;;;;54.03;34.55;;;;;;;17.02;81.78;98834.41;4002802;86;21095;-86
2021/09/15 20:13:28;;;;;;;45.80;29.65;;;;;;;16.96;82.28;98828.42;3951398;88;21117;-86
2021/09/15 20:19:35;;;;;;;49.25;30.23;;;;;;;16.88;82.77;98829.73;3954204;87;21046;-86
2021/09/15 20:25:37;;;;;;;52.45;32.93;;;;;;;16.83;82.78;98825.47;3964370;87;22281;-86
2021/09/15 20:31:44;;;;;;;53.00;32.23;;;;;;;16.77;83.15;98831.27;3979929;87;21500;-86
2021/09/15 20:37:48;;;;;;;49.13;30.75;;;;;;;16.65;83.21;98827.73;3959396;87;21180;-86
2021/09/15 20:43:49;;;;;;;48.80;30.62;;;;;;;16.58;83.68;98818.77;3951476;87;21153;-86
2021/09/15 20:49:52;;;;;;;37.98;25.82;;;;;;;16.48;84.12;98813.59;3944919;88;21665;-86
2021/09/15 20:55:53;;;;;;;45.43;28.35;;;;;;;16.47;84.37;98811.25;3969753;87;21583;-86
2021/09/15 21:02:01;;;;;;;41.13;28.25;;;;;;;16.33;84.17;98810.84;3926107;87;21122;-86
2021/09/15 21:08:03;;;;;;;43.65;28.73;;;;;;;16.38;84.76;98806.83;3960704;88;21628;-86
2021/09/15 21:14:11;;;;;;;38.65;27.37;;;;;;;16.27;84.58;98810.34;3970050;87;22039;-86
2021/09/15 21:20:14;;;;;;;39.73;27.05;;;;;;;16.14;84.84;98816.23;4025061;86;21115;-85
2021/09/15 21:26:33;;;;;;;39.78;28.12;;;;;;;16.09;85.18;98813.94;4026224;86;21023;-86
2021/09/15 21:32:42;;;;;;;39.42;27.52;;;;;;;16.03;85.48;98808.11;4004673;86;21391;-86
2021/09/15 21:38:43;;;;;;;40.33;27.22;;;;;;;15.93;85.77;98811.02;4020730;86;22291;-85
2021/09/15 21:44:49;;;;;;;43.20;27.37;;;;;;;15.87;86.00;98802.41;4020996;86;21562;-85
2021/09/15 21:51:08;;;;;;;36.60;27.70;;;;;;;15.74;86.02;98808.28;3994893;86;22340;-85
2021/09/15 21:57:25;;;;;;;39.48;27.15;;;;;;;15.60;86.31;98807.86;4023930;85;21079;-85
2021/09/15 22:03:26;;;;;;;;;;;;;;;15.59;86.77;98804.94;4028581;86;21095;-85
2021/09/15 22:09:28;;;;;;;32.50;23.50;;;;;;;15.58;87.82;98800.59;4035851;85;20157;-85
2021/09/15 22:15:30;;;;;;;32.40;25.15;;;;;;;15.56;87.11;98800.83;4039784;85;21141;-86
2021/09/15 22:21:32;;;;;;;38.50;25.75;;;;;;;15.53;87.19;98792.77;4047848;85;21196;-85
2021/09/15 22:27:37;;;;;;;35.80;24.65;;;;;;;15.51;87.60;98799.90;4053865;85;21072;-85
2021/09/15 22:33:57;;;;;;;37.63;27.17;;;;;;;15.48;87.74;98797.37;4053736;85;21128;-85
2021/09/15 22:39:58;;;;;;;38.05;26.85;;;;;;;15.51;88.05;98797.93;4051577;85;21044;-85
2021/09/15 22:45:59;;;;;;;40.03;27.27;;;;;;;15.50;88.33;98796.34;4038230;85;21092;-86
2021/09/15 22:52:04;;;;;;;42.03;27.25;;;;;;;15.50;88.61;98793.59;4040894;86;21704;-85
2021/09/15 22:58:24;;;;;;;39.40;27.35;;;;;;;15.43;88.67;98778.52;4046427;85;21584;-86
2021/09/15 23:04:46;;;;;;;38.23;27.27;;;;;;;15.41;88.83;98787.79;4015287;86;21147;-86
2021/09/15 23:10:47;;;;;;;36.20;26.33;;;;;;;15.38;89.28;98779.55;4030632;85;21169;-86
2021/09/15 23:16:49;;;;;;;41.00;27.02;;;;;;;15.36;89.34;98776.41;4044993;86;21195;-86
2021/09/15 23:22:50;;;;;;;37.85;27.00;;;;;;;15.35;89.51;98774.23;4054575;86;21127;-85
2021/09/15 23:29:13;;;;;;;38.02;25.88;;;;;;;15.30;89.64;98768.41;4043479;86;21105;-86
2021/09/15 23:35:27;;;;;;;44.08;26.65;;;;;;;15.21;89.62;98766.13;4030241;86;21641;-86
2021/09/15 23:41:32;;;;;;;39.78;27.25;;;;;;;15.22;89.85;98771.05;4049090;86;21547;-86
2021/09/15 23:47:33;;;;;;;46.75;27.93;;;;;;;15.16;89.93;98762.44;4034381;86;21068;-86
2021/09/15 23:53:35;;;;;;;42.27;27.48;;;;;;;15.10;90.20;98764.08;4036899;85;21560;-86
2021/09/15 23:59:36;;;;;;;43.10;29.57;;;;;;;15.03;90.29;98763.38;4040939;86;21113;-86
